METAR AND TAF INFORMATION
METAR FOR SBSR
ADDS - METARS form results

(0632 UTC 24 April 2019)
Data provider http://aviationweather.gov/metar/data/
 
METAR text: SBSR 240600Z 15005KT CAVOK 23/21 Q1017
Conditions at: SBSR (SAO JOSE PRETO , BR) observed 0600 UTC 24 April 2019
Temperature: 23.0°C (73°F)
Dewpoint: 21.0°C (70°F) [RH = 89%]
Pressure (altimeter): 30.03 inches Hg (1017.0 mb)
Winds: from the SSE (150 degrees) at 6 MPH (5 knots; 2.6 m/s)
Visibility: 6 or more miles (10+ km)
Ceiling: ceiling and visibility are OK
Clouds: unknown
Weather: no significant weather observed at this time

 AIRPORT MAP

 RUNWAY INFORMATION
Runway 7 Runway length 5381 ft Runway width 115 ft
Runway elevation 0 ft Runway displaced threshold 0 ft Runway heading 0
Runway 25 Runway length 5381 ft Runway width 115 ft
Runway elevation 0 ft Runway displaced threshold 0 ft Runway heading 0

 AIRPORT FREQUENCIES
Type AFIS Name RDO Frequency 130.85 MHZ

 AIRPORT NEAR NAVIGATION AIDS
Type NDB Name Rio Preto Frequency 420 KHZ



Powered by Virtual Airlines Manager [v2.6.2]